This is the latest recevied weather packets stored in our database for station/object SQ4LOL-9. If no packets are shown the sender has not sent any weather packets the latest 10 day(s).
| Time | Temp. | Humidity | Pressure | Rain* | Wind** | Luminosity | Snow |
|---|---|---|---|---|---|---|---|
| 1777933679 | 20° C | 37% | 991.1 hPa | - | - | - | - |
| 1777933672 | 20° C | 37% | 991 hPa | - | - | - | - |
| 1777933663 | 20° C | 37% | 990.9 hPa | - | - | - | - |
| 1777933656 | 20° C | 37% | 990.7 hPa | - | - | - | - |
| 1777933650 | 20° C | 37% | 990.6 hPa | - | - | - | - |
| 1777933630 | 19.44° C | 37% | 990.7 hPa | - | - | - | - |
| 1777933623 | 19.44° C | 37% | 990.6 hPa | - | - | - | - |
| 1777933610 | 19.44° C | 37% | 990.6 hPa | - | - | - | - |
| 1777933597 | 19.44° C | 37% | 990.7 hPa | - | - | - | - |
| 1777933590 | 19.44° C | 37% | 990.9 hPa | - | - | - | - |
| 1777933577 | 19.44° C | 37% | 990.8 hPa | - | - | - | - |
| 1777933571 | 19.44° C | 37% | 990.5 hPa | - | - | - | - |
| 1777933564 | 18.89° C | 38% | 990.5 hPa | - | - | - | - |
| 1777933551 | 18.89° C | 38% | 990.3 hPa | - | - | - | - |
| 1777933544 | 18.89° C | 38% | 990.2 hPa | - | - | - | - |
| 1777933511 | 18.89° C | 38% | 990 hPa | - | - | - | - |
| 1777933505 | 18.89° C | 38% | 990.1 hPa | - | - | - | - |
| 1777933492 | 18.33° C | 38% | 990.2 hPa | - | - | - | - |
| 1777933479 | 18.33° C | 38% | 990.4 hPa | - | - | - | - |
| 1777933472 | 18.33° C | 38% | 990.6 hPa | - | - | - | - |
| 1777933466 | 18.33° C | 39% | 990.8 hPa | - | - | - | - |
| 1777933452 | 18.33° C | 39% | 990.9 hPa | - | - | - | - |
| 1777933446 | 17.78° C | 39% | 991 hPa | - | - | - | - |
| 1777901299 | 16.67° C | 40% | 991.9 hPa | - | - | - | - |
| 1777901293 | 16.67° C | 40% | 991.4 hPa | - | - | - | - |
* Rain since midnight (hover to see other rain measurements)
** Current wind speed in m/s (hover to see current wind gust speed)